Etusivu
METAR-TAF:

METAR-TAF

Lentoasemat :

Manhattan, Kansas, Yhdysvallat

Leveyspiiri: 39-08-07N, Pituuspiiri: 096-40-40W, korkeus merenpinnasta: 321 m

Tämänhetkinen sää

Tämä raportti tehtiin 34 minuuttia sitten, kello 18.52 UTC
tyyntä
Lämpötila 4°C
Kosteus 56%
Ilmanpaine 1030 hPa
Näkyvyys: 16.1 km
Pilvistä 9000 ft:n korkeudessa

METAR: KMHK 251852Z 00000KT 10SM OVC090 04/M04 A3041 RMK AO2 SLP310 T00441039

Aika: 13:26 (19:26 UTC)

Sääennuste

Tämä raportti tehtiin 1 tunti ja 59 minuuttia sitten, kello 17.27 UTC
Ennuste voimassa 25. päivästä klo 18 UTC - 26. päivään klo 18 UTC
Tuuli 3 kn pohjoisen/luoteesta
Näkyvyys: 10 km
Hajonneita pilviä 10000 ft:n korkeudessa
From 26. päivästä klo 1600 UTC
Tuuli 10 kn etelästä
Näkyvyys: 10 km
Hajanaisia pilviä 10000 ft:n korkeudessa

TAF: KMHK 251727Z 2518/2618 34003KT P6SM BKN100 FM261600 18010KT P6SM SCT100

Säähavainnot ja -ennusteet yli 4000 lentoasemalta (METAR- ja TAF-raportit).

Käytössä olevat sääasemat on merkitty karttaan keltaisilla ja punaisilla pisteillä.

Aseta hiiri pisteen päälle nähdäksesi sääaseman nimen.

Klikkaa sitten nähdäksesi säähavainnot ja -ennusteet.

Kartan vaihtaminen: klikkaa mustalla rastilla varustettuja vihreitä pisteitä, niin voit zoomata sisään; viivalla varustettua vihreää pistettä, niin voit zoomata ulos tai vihreitä nuolia, niin pääset viereisille kartoille.


METAR-TAF: